Time;durP1;ratioP1;P1;durP2;ratioP2;P2;SDS_P1;SDS_P2;PMS_P1;PMS_P2;Temp;Humidity;BMP_temperature;BMP_pressure;BME280_temperature;BME280_humidity;BME280_pressure;Samples;Min_cycle;Max_cycle;Signal;HPM_P1;HPM_P2
2022/10/20 00:01:09;;;;;;;50.60;26.15;;;;;;;;;;4960106;28;20471;-68
2022/10/20 00:03:35;;;;;;;55.08;26.48;;;;;;;;;;4961483;28;20452;-69
2022/10/20 00:06:12;;;;;;;45.28;24.83;;;;;;;;;;4962045;28;20073;-67
2022/10/20 00:08:39;;;;;;;48.20;25.35;;;;;;;;;;4961856;28;20047;-68
2022/10/20 00:11:05;;;;;;;46.88;25.70;;;;;;;;;;4959551;28;20101;-68
2022/10/20 00:13:30;;;;;;;41.42;23.67;;;;;;;;;;4960669;28;20053;-68
2022/10/20 00:15:57;;;;;;;46.28;23.52;;;;;;;;;;4961655;28;20085;-68
2022/10/20 00:18:23;;;;;;;44.40;24.83;;;;;;;;;;4960384;28;20062;-68
2022/10/20 00:20:50;;;;;;;47.85;25.35;;;;;;;;;;4961170;28;20039;-68
2022/10/20 00:23:16;;;;;;;46.95;26.33;;;;;;;;;;4960211;28;20125;-68
2022/10/20 00:25:41;;;;;;;44.03;23.55;;;;;;;;;;4961866;28;20043;-68
2022/10/20 00:28:06;;;;;;;54.47;28.30;;;;;;;;;;4962504;28;20054;-68
2022/10/20 00:30:33;;;;;;;49.53;25.33;;;;;;;;;;4965643;28;20125;-68
2022/10/20 00:32:59;;;;;;;50.53;26.33;;;;;;;;;;4964848;28;20049;-68
2022/10/20 00:35:24;;;;;;;57.25;28.25;;;;;;;;;;4965315;28;20058;-68
2022/10/20 00:37:50;;;;;;;47.17;25.13;;;;;;;;;;4966601;28;20767;-68
2022/10/20 00:40:15;;;;;;;54.53;25.88;;;;;;;;;;4971526;28;20074;-69
2022/10/20 00:42:45;;;;;;;49.95;25.45;;;;;;;;;;4968121;28;20109;-70
2022/10/20 00:45:12;;;;;;;46.08;23.48;;;;;;;;;;4970931;28;20496;-69
2022/10/20 00:47:55;;;;;;;50.72;22.77;;;;;;;;;;4970179;28;20118;-69
2022/10/20 00:50:28;;;;;;;47.42;24.00;;;;;;;;;;4950369;28;20046;-69
2022/10/20 00:52:55;;;;;;;42.85;22.20;;;;;;;;;;4973546;28;20053;-69
2022/10/20 00:55:29;;;;;;;44.42;22.08;;;;;;;;;;4971899;28;20050;-69
2022/10/20 00:57:57;;;;;;;38.00;18.73;;;;;;;;;;4970637;28;21167;-68
2022/10/20 01:00:23;;;;;;;36.22;20.52;;;;;;;;;;4965009;28;20043;-68
2022/10/20 01:02:51;;;;;;;38.17;20.35;;;;;;;;;;4964234;28;20053;-69
2022/10/20 01:05:17;;;;;;;37.42;19.58;;;;;;;;;;4965014;28;20069;-68
2022/10/20 01:07:42;;;;;;;36.70;20.55;;;;;;;;;;4964942;28;20046;-68
2022/10/20 01:10:10;;;;;;;40.55;20.80;;;;;;;;;;4966419;28;20420;-68
2022/10/20 01:12:54;;;;;;;35.22;21.10;;;;;;;;;;4966753;28;20507;-68
2022/10/20 01:15:31;;;;;;;33.47;19.67;;;;;;;;;;4963246;28;20058;-68
2022/10/20 01:18:28;;;;;;;35.33;20.48;;;;;;;;;;4965184;28;20108;-69
2022/10/20 01:21:03;;;;;;;34.65;20.25;;;;;;;;;;4963285;28;20062;-68
2022/10/20 01:23:54;;;;;;;37.75;20.70;;;;;;;;;;4961699;28;20051;-68
2022/10/20 01:26:54;;;;;;;39.75;21.40;;;;;;;;;;4958379;28;20055;-68
2022/10/20 01:29:30;;;;;;;32.80;18.50;;;;;;;;;;4959380;28;20051;-68
2022/10/20 01:32:14;;;;;;;36.15;19.67;;;;;;;;;;4962763;28;20055;-69
2022/10/20 01:35:00;;;;;;;37.80;19.33;;;;;;;;;;4964250;28;20531;-68
2022/10/20 01:37:46;;;;;;;31.63;19.50;;;;;;;;;;4962107;28;20081;-68
2022/10/20 01:40:18;;;;;;;34.10;17.73;;;;;;;;;;4963961;28;20054;-68
2022/10/20 01:42:50;;;;;;;39.08;18.73;;;;;;;;;;4996450;23;20078;-68
2022/10/20 01:45:19;;;;;;;34.30;19.10;;;;;;;;;;4965065;28;20125;-68
2022/10/20 01:47:47;;;;;;;31.92;17.55;;;;;;;;;;4965558;28;20125;-65
2022/10/20 01:50:14;;;;;;;30.48;18.67;;;;;;;;;;4964645;28;20105;-68
2022/10/20 01:52:39;;;;;;;33.97;19.10;;;;;;;;;;4964374;28;20082;-65
2022/10/20 01:55:14;;;;;;;33.47;19.27;;;;;;;;;;4963481;28;20081;-66
2022/10/20 01:58:05;;;;;;;30.65;18.10;;;;;;;;;;4964705;28;20042;-67
2022/10/20 02:00:33;;;;;;;27.77;18.27;;;;;;;;;;4964617;28;21144;-66
2022/10/20 02:03:19;;;;;;;36.30;17.83;;;;;;;;;;4963800;28;20283;-66
2022/10/20 02:06:03;;;;;;;34.10;19.08;;;;;;;;;;4964464;28;20163;-67
2022/10/20 02:08:38;;;;;;;33.38;17.48;;;;;;;;;;4964680;28;20046;-66
2022/10/20 02:11:06;;;;;;;38.33;19.48;;;;;;;;;;4961723;28;20055;-67
2022/10/20 02:13:35;;;;;;;35.08;18.33;;;;;;;;;;4964534;28;20047;-67
2022/10/20 02:16:08;;;;;;;25.83;16.55;;;;;;;;;;4963438;28;20046;-67
2022/10/20 02:18:38;;;;;;;30.23;17.30;;;;;;;;;;4964597;28;20058;-67
2022/10/20 02:21:06;;;;;;;32.58;17.05;;;;;;;;;;4964298;28;20059;-67
2022/10/20 02:23:35;;;;;;;30.27;17.30;;;;;;;;;;4965099;28;20043;-67
2022/10/20 02:26:03;;;;;;;24.73;16.38;;;;;;;;;;4964505;28;20407;-65
2022/10/20 02:28:30;;;;;;;32.00;15.68;;;;;;;;;;4963516;28;20043;-67
2022/10/20 02:30:56;;;;;;;34.47;17.48;;;;;;;;;;4963759;28;20522;-67
2022/10/20 02:33:22;;;;;;;34.50;16.52;;;;;;;;;;4963728;28;20042;-66
2022/10/20 02:35:54;;;;;;;28.40;15.57;;;;;;;;;;4964038;28;20106;-67
2022/10/20 02:38:19;;;;;;;28.58;17.02;;;;;;;;;;4962953;28;20058;-67
2022/10/20 02:40:45;;;;;;;36.15;16.58;;;;;;;;;;4963208;28;20037;-66
2022/10/20 02:43:10;;;;;;;32.92;18.05;;;;;;;;;;4963109;28;20118;-67
2022/10/20 02:45:36;;;;;;;27.65;16.02;;;;;;;;;;4963515;28;20047;-67
2022/10/20 02:48:01;;;;;;;31.25;17.55;;;;;;;;;;4961579;28;20270;-67
2022/10/20 02:50:27;;;;;;;29.00;16.05;;;;;;;;;;4962476;28;20039;-68
2022/10/20 02:52:52;;;;;;;31.30;16.13;;;;;;;;;;4962240;28;20101;-68
2022/10/20 02:55:18;;;;;;;28.63;16.17;;;;;;;;;;4963374;28;20058;-68
2022/10/20 02:57:43;;;;;;;29.50;17.23;;;;;;;;;;4963016;28;20050;-68
2022/10/20 03:00:09;;;;;;;29.00;15.90;;;;;;;;;;4962780;28;20042;-67
2022/10/20 03:02:34;;;;;;;27.65;17.13;;;;;;;;;;4962654;28;20403;-67
2022/10/20 03:05:00;;;;;;;32.50;17.77;;;;;;;;;;4962628;28;20051;-67
2022/10/20 03:07:25;;;;;;;33.50;17.42;;;;;;;;;;4961472;28;20045;-67
2022/10/20 03:09:51;;;;;;;32.80;17.65;;;;;;;;;;4962827;28;20042;-66
2022/10/20 03:12:16;;;;;;;33.45;15.02;;;;;;;;;;4962007;28;20047;-65
2022/10/20 03:14:42;;;;;;;32.58;16.23;;;;;;;;;;4962605;28;20061;-66
2022/10/20 03:17:08;;;;;;;26.65;16.00;;;;;;;;;;4963027;28;20171;-66
2022/10/20 03:19:33;;;;;;;30.52;18.00;;;;;;;;;;4963331;28;20499;-65
2022/10/20 03:21:59;;;;;;;32.65;17.50;;;;;;;;;;4963223;28;20073;-66
2022/10/20 03:24:25;;;;;;;37.78;17.50;;;;;;;;;;4962672;28;20912;-66
2022/10/20 03:26:50;;;;;;;27.02;16.40;;;;;;;;;;4958821;28;20045;-67
2022/10/20 03:29:16;;;;;;;32.00;15.48;;;;;;;;;;4962175;28;20057;-67
2022/10/20 03:31:41;;;;;;;32.05;17.73;;;;;;;;;;4962729;28;20591;-68
2022/10/20 03:34:07;;;;;;;31.02;16.88;;;;;;;;;;4962718;28;20111;-65
2022/10/20 03:36:32;;;;;;;33.63;18.73;;;;;;;;;;4964254;28;20046;-65
2022/10/20 03:38:57;;;;;;;25.67;14.98;;;;;;;;;;4960920;28;20109;-67
2022/10/20 03:41:23;;;;;;;33.15;16.58;;;;;;;;;;4962642;28;20109;-67
2022/10/20 03:43:48;;;;;;;35.55;19.58;;;;;;;;;;4962311;28;20054;-67
2022/10/20 03:46:14;;;;;;;32.97;17.90;;;;;;;;;;4962547;28;20510;-68
2022/10/20 03:48:40;;;;;;;34.28;17.20;;;;;;;;;;4962437;28;20134;-67
2022/10/20 03:51:07;;;;;;;28.45;17.50;;;;;;;;;;4961569;28;20051;-67
2022/10/20 03:53:33;;;;;;;30.15;16.63;;;;;;;;;;4961867;28;20094;-68
2022/10/20 03:55:58;;;;;;;25.15;14.05;;;;;;;;;;4962414;28;20146;-67
2022/10/20 03:58:24;;;;;;;28.58;15.25;;;;;;;;;;4962240;28;20484;-67
2022/10/20 04:00:50;;;;;;;29.67;15.02;;;;;;;;;;4961884;28;20043;-67
2022/10/20 04:03:15;;;;;;;25.00;14.73;;;;;;;;;;4962066;28;20058;-68
2022/10/20 04:05:41;;;;;;;29.92;17.48;;;;;;;;;;4961511;28;20054;-68
2022/10/20 04:08:06;;;;;;;31.85;18.02;;;;;;;;;;4960990;28;20065;-68
2022/10/20 04:10:32;;;;;;;32.30;16.23;;;;;;;;;;4961419;28;20053;-67
2022/10/20 04:12:59;;;;;;;34.78;18.05;;;;;;;;;;4960402;28;20047;-68
2022/10/20 04:15:25;;;;;;;46.67;19.85;;;;;;;;;;4960763;28;20078;-67
2022/10/20 04:17:50;;;;;;;37.15;16.35;;;;;;;;;;4961642;28;20074;-68
2022/10/20 04:20:16;;;;;;;30.50;16.17;;;;;;;;;;4961457;28;20499;-68
2022/10/20 04:22:41;;;;;;;35.83;16.98;;;;;;;;;;4961454;28;20074;-67
2022/10/20 04:25:07;;;;;;;30.88;15.88;;;;;;;;;;4961154;28;20542;-67
2022/10/20 04:27:33;;;;;;;46.20;17.48;;;;;;;;;;4961781;28;20043;-68
2022/10/20 04:29:58;;;;;;;35.00;19.23;;;;;;;;;;4961641;28;20044;-67
2022/10/20 04:32:24;;;;;;;34.40;17.50;;;;;;;;;;4961827;28;20190;-67
2022/10/20 04:34:49;;;;;;;32.20;16.80;;;;;;;;;;4961020;28;20047;-67
2022/10/20 04:37:15;;;;;;;37.67;17.67;;;;;;;;;;4960356;28;20396;-67
2022/10/20 04:39:40;;;;;;;31.98;16.58;;;;;;;;;;4962201;28;20045;-68
2022/10/20 04:42:06;;;;;;;37.22;17.77;;;;;;;;;;4947937;28;20046;-68
2022/10/20 04:44:31;;;;;;;36.03;16.98;;;;;;;;;;4962924;28;20042;-67
2022/10/20 04:46:56;;;;;;;32.65;16.65;;;;;;;;;;4960517;28;20472;-67
2022/10/20 04:49:22;;;;;;;31.65;16.50;;;;;;;;;;4958251;28;20101;-67
2022/10/20 04:51:48;;;;;;;35.83;16.70;;;;;;;;;;4958742;28;20050;-68
2022/10/20 04:54:14;;;;;;;35.72;15.90;;;;;;;;;;4959018;28;20042;-67
2022/10/20 04:56:40;;;;;;;37.67;17.10;;;;;;;;;;4959070;28;20035;-69
2022/10/20 04:59:05;;;;;;;22.70;12.88;;;;;;;;;;4957212;28;20089;-68
2022/10/20 05:01:31;;;;;;;38.15;16.25;;;;;;;;;;4960664;28;20055;-68
2022/10/20 05:03:56;;;;;;;40.20;16.35;;;;;;;;;;4961853;28;20089;-67
2022/10/20 05:06:27;;;;;;;33.92;17.33;;;;;;;;;;4959786;28;20459;-67
2022/10/20 05:08:56;;;;;;;36.78;16.75;;;;;;;;;;4960063;28;20687;-68
2022/10/20 05:11:23;;;;;;;29.27;15.70;;;;;;;;;;4960356;28;20061;-68
2022/10/20 05:13:49;;;;;;;34.13;17.23;;;;;;;;;;4960228;28;20495;-68
2022/10/20 05:16:18;;;;;;;33.15;17.40;;;;;;;;;;4963497;28;20057;-67
2022/10/20 05:18:45;;;;;;;38.60;16.42;;;;;;;;;;4962202;28;20193;-69
2022/10/20 05:21:13;;;;;;;45.15;17.83;;;;;;;;;;4961717;28;20051;-69
2022/10/20 05:23:39;;;;;;;31.17;14.13;;;;;;;;;;4961097;28;20138;-68
2022/10/20 05:26:13;;;;;;;31.50;15.73;;;;;;;;;;4961453;28;20054;-67
2022/10/20 05:28:42;;;;;;;35.20;16.30;;;;;;;;;;4961502;28;20142;-67
2022/10/20 05:31:07;;;;;;;33.35;16.05;;;;;;;;;;4960718;28;20105;-67
2022/10/20 05:33:34;;;;;;;32.00;17.45;;;;;;;;;;4962334;28;20567;-69
2022/10/20 05:35:59;;;;;;;28.77;15.02;;;;;;;;;;4963836;28;20062;-67
2022/10/20 05:38:25;;;;;;;32.88;17.65;;;;;;;;;;4963229;28;20039;-69
2022/10/20 05:40:50;;;;;;;31.27;15.75;;;;;;;;;;4963583;28;20037;-68
2022/10/20 05:43:15;;;;;;;33.30;16.48;;;;;;;;;;4963248;28;20483;-68
2022/10/20 05:45:41;;;;;;;29.55;15.80;;;;;;;;;;4963801;28;20047;-67
2022/10/20 05:48:06;;;;;;;35.45;17.27;;;;;;;;;;4964375;28;20341;-69
2022/10/20 05:50:32;;;;;;;32.58;16.85;;;;;;;;;;4963994;28;20038;-68
2022/10/20 05:52:58;;;;;;;31.80;15.38;;;;;;;;;;4963188;28;20050;-66
2022/10/20 05:55:25;;;;;;;37.10;14.93;;;;;;;;;;4963933;28;20093;-68
2022/10/20 05:57:51;;;;;;;31.10;16.10;;;;;;;;;;4964135;28;20051;-66
2022/10/20 06:03:40;;;;;;;31.20;14.98;;;;;;;;;;5310207;23;20052;-67
2022/10/20 06:06:06;;;;;;;35.15;15.30;;;;;;;;;;4982946;28;20049;-68
2022/10/20 06:08:32;;;;;;;41.38;14.15;;;;;;;;;;4982891;28;20034;-67
2022/10/20 06:11:06;;;;;;;31.52;16.60;;;;;;;;;;4981525;28;20054;-67
2022/10/20 06:13:32;;;;;;;51.15;18.20;;;;;;;;;;4982370;28;20089;-68
2022/10/20 06:16:02;;;;;;;43.65;18.55;;;;;;;;;;4983194;28;20093;-68
2022/10/20 06:18:27;;;;;;;52.30;16.17;;;;;;;;;;4981580;28;20042;-67
2022/10/20 06:21:08;;;;;;;43.25;17.40;;;;;;;;;;4981718;28;20046;-67
2022/10/20 06:23:34;;;;;;;36.42;16.80;;;;;;;;;;4982637;28;20061;-67
2022/10/20 06:26:08;;;;;;;40.55;17.15;;;;;;;;;;4981283;28;20046;-66
2022/10/20 06:28:35;;;;;;;36.53;16.63;;;;;;;;;;4981719;28;20042;-68
2022/10/20 06:31:10;;;;;;;38.47;15.98;;;;;;;;;;4981637;28;20053;-67
2022/10/20 06:33:35;;;;;;;27.83;15.70;;;;;;;;;;4982136;28;20038;-68
2022/10/20 06:36:00;;;;;;;32.70;14.55;;;;;;;;;;4982321;28;20426;-70
2022/10/20 06:38:27;;;;;;;39.45;16.13;;;;;;;;;;4981495;28;20749;-68
2022/10/20 06:40:52;;;;;;;28.85;15.65;;;;;;;;;;4976850;28;20038;-69
2022/10/20 06:43:18;;;;;;;37.03;16.33;;;;;;;;;;4981582;28;20050;-69
2022/10/20 06:45:43;;;;;;;33.10;16.95;;;;;;;;;;4981859;28;20478;-68
2022/10/20 06:48:09;;;;;;;26.52;12.55;;;;;;;;;;4982461;28;20080;-69
2022/10/20 06:50:34;;;;;;;31.67;15.05;;;;;;;;;;4981494;28;20051;-68
2022/10/20 06:53:00;;;;;;;30.00;15.20;;;;;;;;;;4981313;28;20047;-68
2022/10/20 06:55:25;;;;;;;32.88;15.68;;;;;;;;;;4982391;28;20697;-69
2022/10/20 06:57:51;;;;;;;28.33;14.07;;;;;;;;;;4982761;28;20057;-68
2022/10/20 07:00:16;;;;;;;27.50;14.40;;;;;;;;;;4981272;28;20042;-69
2022/10/20 07:02:42;;;;;;;26.65;13.68;;;;;;;;;;4982072;28;20046;-69
2022/10/20 07:05:07;;;;;;;25.23;11.77;;;;;;;;;;4981507;28;20050;-69
2022/10/20 07:07:33;;;;;;;25.27;12.05;;;;;;;;;;4981601;28;20155;-67
2022/10/20 07:09:58;;;;;;;27.35;13.07;;;;;;;;;;4982028;28;20491;-68
2022/10/20 07:12:24;;;;;;;27.60;12.35;;;;;;;;;;4980640;28;20038;-69
2022/10/20 07:14:49;;;;;;;28.25;12.07;;;;;;;;;;4980873;28;20045;-68
2022/10/20 07:17:15;;;;;;;18.90;11.55;;;;;;;;;;4963979;28;20060;-69
2022/10/20 07:19:40;;;;;;;15.85;10.85;;;;;;;;;;4981883;28;20050;-69
2022/10/20 07:22:05;;;;;;;22.25;10.63;;;;;;;;;;4981507;28;20111;-68
2022/10/20 07:24:31;;;;;;;18.33;11.20;;;;;;;;;;4980230;28;20137;-69
2022/10/20 07:26:56;;;;;;;22.75;11.38;;;;;;;;;;4980436;28;20089;-69
2022/10/20 07:29:22;;;;;;;30.92;14.32;;;;;;;;;;4981153;28;20457;-68
2022/10/20 07:31:47;;;;;;;20.95;12.13;;;;;;;;;;4981592;28;20541;-69
2022/10/20 07:34:16;;;;;;;26.85;11.23;;;;;;;;;;4980160;28;20082;-68
2022/10/20 07:36:42;;;;;;;24.13;12.05;;;;;;;;;;4981250;28;20508;-68
2022/10/20 07:39:10;;;;;;;20.90;10.82;;;;;;;;;;4980137;28;20058;-68
2022/10/20 07:41:36;;;;;;;20.45;10.32;;;;;;;;;;4981233;28;20154;-67
2022/10/20 07:44:02;;;;;;;17.15;10.40;;;;;;;;;;4981083;28;20096;-69
2022/10/20 07:46:27;;;;;;;20.15;10.23;;;;;;;;;;4979791;28;20132;-68
2022/10/20 07:48:53;;;;;;;15.43;10.70;;;;;;;;;;4963037;28;20050;-68
2022/10/20 07:51:24;;;;;;;23.13;11.18;;;;;;;;;;4981180;28;20060;-68
2022/10/20 07:53:52;;;;;;;16.23;10.10;;;;;;;;;;4981066;28;20085;-68
2022/10/20 07:56:19;;;;;;;20.38;11.07;;;;;;;;;;4980170;28;20077;-67
2022/10/20 07:58:45;;;;;;;16.38;10.77;;;;;;;;;;4980130;28;20049;-69
2022/10/20 08:01:11;;;;;;;21.40;10.43;;;;;;;;;;4980566;28;20513;-68
2022/10/20 08:03:36;;;;;;;22.05;11.77;;;;;;;;;;4980554;28;20038;-67
2022/10/20 08:06:03;;;;;;;21.15;11.40;;;;;;;;;;4980708;28;20537;-68
2022/10/20 08:08:28;;;;;;;20.35;10.95;;;;;;;;;;4980202;28;20084;-67
2022/10/20 08:10:54;;;;;;;16.83;9.32;;;;;;;;;;4979607;28;20081;-68
2022/10/20 08:13:20;;;;;;;13.07;9.02;;;;;;;;;;4980364;28;20050;-66
2022/10/20 08:15:45;;;;;;;14.45;8.65;;;;;;;;;;4981198;28;20049;-68
2022/10/20 08:18:11;;;;;;;16.40;8.15;;;;;;;;;;4979615;28;20050;-68
2022/10/20 08:20:36;;;;;;;10.85;6.50;;;;;;;;;;4980816;28;20043;-67
2022/10/20 08:23:02;;;;;;;11.85;6.30;;;;;;;;;;4979684;28;20061;-68
2022/10/20 08:25:27;;;;;;;12.63;5.85;;;;;;;;;;4980716;28;20042;-68
2022/10/20 08:27:53;;;;;;;9.82;5.35;;;;;;;;;;4980323;28;20053;-68
2022/10/20 08:30:18;;;;;;;12.38;5.30;;;;;;;;;;4979668;28;20054;-67
2022/10/20 08:32:43;;;;;;;11.18;4.72;;;;;;;;;;4979483;28;20050;-73
2022/10/20 08:35:09;;;;;;;5.60;4.28;;;;;;;;;;4981089;28;20050;-69
2022/10/20 08:37:35;;;;;;;8.07;4.85;;;;;;;;;;4980767;28;20042;-67
2022/10/20 08:40:02;;;;;;;6.72;4.57;;;;;;;;;;4979779;28;20046;-67
2022/10/20 08:42:28;;;;;;;6.57;4.10;;;;;;;;;;4980162;28;20128;-67
2022/10/20 08:44:58;;;;;;;8.05;4.60;;;;;;;;;;4979396;28;20197;-67
2022/10/20 08:47:28;;;;;;;12.20;4.70;;;;;;;;;;4979929;28;20446;-68
2022/10/20 08:49:54;;;;;;;9.20;4.95;;;;;;;;;;4982357;28;20058;-67
2022/10/20 08:52:22;;;;;;;8.95;5.18;;;;;;;;;;4983850;28;20725;-67
2022/10/20 08:54:53;;;;;;;8.88;5.05;;;;;;;;;;4983262;28;20049;-68
2022/10/20 08:57:25;;;;;;;8.20;4.55;;;;;;;;;;4984674;28;20050;-68
2022/10/20 08:59:53;;;;;;;8.23;4.90;;;;;;;;;;4984185;28;20046;-68
2022/10/20 09:02:19;;;;;;;6.65;4.82;;;;;;;;;;4983518;28;20046;-68
2022/10/20 09:04:47;;;;;;;5.97;4.25;;;;;;;;;;4983021;28;20054;-68
2022/10/20 09:07:18;;;;;;;6.95;4.72;;;;;;;;;;4983954;28;20141;-67
2022/10/20 09:09:44;;;;;;;10.13;4.70;;;;;;;;;;4966347;28;20042;-67
2022/10/20 09:12:13;;;;;;;5.25;4.40;;;;;;;;;;4983413;28;20050;-66
2022/10/20 09:14:39;;;;;;;7.28;4.13;;;;;;;;;;4983513;28;20046;-67
2022/10/20 09:17:15;;;;;;;11.02;4.68;;;;;;;;;;4949281;28;20080;-68
2022/10/20 09:19:45;;;;;;;7.88;4.88;;;;;;;;;;4966505;28;20111;-69
2022/10/20 09:22:12;;;;;;;7.50;4.70;;;;;;;;;;4983803;28;20056;-70
2022/10/20 09:24:41;;;;;;;9.05;5.28;;;;;;;;;;4982605;28;20046;-67
2022/10/20 09:27:23;;;;;;;14.45;5.68;;;;;;;;;;4982526;28;20827;-69
2022/10/20 09:29:49;;;;;;;11.82;5.15;;;;;;;;;;4983804;28;20176;-69
2022/10/20 09:32:32;;;;;;;8.63;4.72;;;;;;;;;;4983897;28;20220;-69
2022/10/20 09:35:13;;;;;;;6.97;4.95;;;;;;;;;;4982247;28;20061;-68
2022/10/20 09:37:39;;;;;;;9.13;4.68;;;;;;;;;;4983731;28;20498;-69
2022/10/20 09:40:14;;;;;;;8.02;4.43;;;;;;;;;;4983274;28;20498;-67
2022/10/20 09:42:46;;;;;;;6.60;4.55;;;;;;;;;;4983708;28;20556;-68
2022/10/20 09:45:18;;;;;;;6.13;4.55;;;;;;;;;;4981701;28;20061;-68
2022/10/20 09:47:47;;;;;;;5.95;4.60;;;;;;;;;;4982731;28;20046;-69
2022/10/20 09:50:18;;;;;;;7.72;4.47;;;;;;;;;;4983127;28;20057;-69
2022/10/20 09:52:47;;;;;;;11.32;4.43;;;;;;;;;;4983385;28;20150;-68
2022/10/20 09:55:35;;;;;;;4.85;4.22;;;;;;;;;;4964215;28;20577;-68
2022/10/20 09:58:03;;;;;;;8.25;4.65;;;;;;;;;;4983090;28;20058;-69
2022/10/20 10:00:34;;;;;;;8.52;4.13;;;;;;;;;;4983060;28;20038;-68
2022/10/20 10:03:21;;;;;;;6.53;4.23;;;;;;;;;;4965238;28;20058;-70
2022/10/20 10:05:57;;;;;;;14.15;5.68;;;;;;;;;;4982988;28;20054;-68
2022/10/20 10:08:26;;;;;;;6.25;4.63;;;;;;;;;;4981642;28;20077;-68
2022/10/20 10:11:04;;;;;;;9.15;4.20;;;;;;;;;;4964452;28;20422;-69
2022/10/20 10:13:38;;;;;;;10.80;4.32;;;;;;;;;;4982803;28;20070;-68
2022/10/20 10:16:14;;;;;;;6.00;3.83;;;;;;;;;;4982374;28;20511;-68
2022/10/20 10:18:40;;;;;;;8.00;3.95;;;;;;;;;;4981635;28;20053;-68
2022/10/20 10:21:08;;;;;;;7.10;4.18;;;;;;;;;;4981835;28;20054;-68
2022/10/20 10:23:48;;;;;;;6.43;4.00;;;;;;;;;;4982594;28;20156;-68
2022/10/20 10:26:42;;;;;;;8.45;4.30;;;;;;;;;;4982769;28;20058;-68
2022/10/20 10:29:34;;;;;;;7.57;4.35;;;;;;;;;;4980907;28;20058;-68
2022/10/20 10:32:14;;;;;;;8.20;3.97;;;;;;;;;;4982230;28;20050;-67
2022/10/20 10:35:08;;;;;;;6.63;3.90;;;;;;;;;;4982041;28;20061;-69
2022/10/20 10:37:35;;;;;;;6.10;3.80;;;;;;;;;;4966545;28;20050;-70
2022/10/20 10:40:10;;;;;;;4.53;3.97;;;;;;;;;;4981243;28;20472;-69
2022/10/20 10:42:47;;;;;;;6.75;4.10;;;;;;;;;;4982127;28;20038;-69
2022/10/20 10:45:18;;;;;;;9.45;4.60;;;;;;;;;;4981478;28;20053;-69
2022/10/20 10:47:53;;;;;;;5.47;4.53;;;;;;;;;;4981757;28;20109;-68
2022/10/20 10:50:27;;;;;;;6.47;4.53;;;;;;;;;;4981189;28;20514;-69
2022/10/20 10:53:06;;;;;;;5.70;4.50;;;;;;;;;;4980725;28;20162;-69
2022/10/20 10:56:07;;;;;;;12.13;4.88;;;;;;;;;;4981579;28;20084;-70
2022/10/20 10:58:58;;;;;;;9.68;4.38;;;;;;;;;;4972464;28;20061;-67
2022/10/20 11:01:39;;;;;;;8.00;5.20;;;;;;;;;;4962499;28;20788;-70
2022/10/20 11:04:16;;;;;;;5.95;4.35;;;;;;;;;;4980272;28;20070;-68
2022/10/20 11:06:49;;;;;;;7.35;4.72;;;;;;;;;;4979344;28;20509;-68
2022/10/20 11:09:17;;;;;;;9.30;4.28;;;;;;;;;;4978747;28;20180;-68
2022/10/20 11:12:13;;;;;;;7.70;4.32;;;;;;;;;;4979071;28;20074;-69
2022/10/20 11:14:52;;;;;;;11.75;4.45;;;;;;;;;;4979961;28;20077;-69
2022/10/20 11:17:37;;;;;;;6.93;4.40;;;;;;;;;;4980244;28;20077;-69
2022/10/20 11:20:08;;;;;;;9.98;4.53;;;;;;;;;;4980083;28;20054;-69
2022/10/20 11:22:49;;;;;;;13.90;4.40;;;;;;;;;;4979615;28;20057;-69
2022/10/20 11:25:34;;;;;;;7.57;4.22;;;;;;;;;;4979850;28;20130;-71
2022/10/20 11:28:00;;;;;;;7.97;5.03;;;;;;;;;;4980358;28;20050;-70
2022/10/20 11:30:29;;;;;;;5.90;4.10;;;;;;;;;;4978254;28;20499;-70
2022/10/20 11:33:12;;;;;;;7.13;4.38;;;;;;;;;;4975587;28;20100;-70
2022/10/20 11:35:55;;;;;;;8.07;4.18;;;;;;;;;;4980005;28;20117;-69
2022/10/20 11:38:48;;;;;;;11.13;5.78;;;;;;;;;;4979370;28;20046;-68
2022/10/20 11:41:53;;;;;;;5.63;3.83;;;;;;;;;;4977882;28;20050;-69
2022/10/20 11:44:41;;;;;;;8.32;4.50;;;;;;;;;;4925329;28;20042;-69
2022/10/20 11:47:18;;;;;;;6.53;4.50;;;;;;;;;;4978793;28;20396;-70
2022/10/20 11:49:43;;;;;;;7.47;4.50;;;;;;;;;;4979649;28;20069;-71
2022/10/20 11:52:27;;;;;;;7.78;4.55;;;;;;;;;;4979453;28;20054;-70
2022/10/20 11:55:06;;;;;;;6.90;4.38;;;;;;;;;;4979128;28;20069;-69
2022/10/20 11:58:03;;;;;;;8.30;4.38;;;;;;;;;;4978695;28;20046;-69
2022/10/20 12:00:59;;;;;;;8.63;4.28;;;;;;;;;;4978981;28;20109;-71
2022/10/20 12:03:27;;;;;;;6.55;4.57;;;;;;;;;;4929935;28;20050;-69
2022/10/20 12:06:31;;;;;;;9.07;4.97;;;;;;;;;;4980734;28;20054;-70
2022/10/20 12:09:31;;;;;;;8.23;5.18;;;;;;;;;;4925098;28;20666;-70
2022/10/20 12:12:06;;;;;;;9.07;4.82;;;;;;;;;;4963149;28;20058;-70
2022/10/20 12:14:44;;;;;;;6.10;4.50;;;;;;;;;;4981035;28;20716;-68
2022/10/20 12:17:36;;;;;;;6.43;4.82;;;;;;;;;;4979527;28;20046;-69
2022/10/20 12:20:19;;;;;;;7.88;4.50;;;;;;;;;;4979989;28;20053;-69
2022/10/20 12:22:46;;;;;;;10.10;4.22;;;;;;;;;;4980824;28;20132;-70
2022/10/20 12:25:24;;;;;;;12.15;4.63;;;;;;;;;;4982886;28;20503;-70
2022/10/20 12:28:23;;;;;;;12.13;4.78;;;;;;;;;;4984638;28;20077;-69
2022/10/20 12:30:58;;;;;;;12.35;5.72;;;;;;;;;;4983776;28;20053;-69
2022/10/20 12:33:47;;;;;;;6.85;4.85;;;;;;;;;;4984580;28;20046;-68
2022/10/20 12:36:16;;;;;;;9.00;5.57;;;;;;;;;;4983280;28;20149;-68
2022/10/20 12:38:44;;;;;;;8.55;4.82;;;;;;;;;;4984372;28;20100;-68
2022/10/20 12:41:24;;;;;;;13.10;5.32;;;;;;;;;;4982312;28;20089;-66
2022/10/20 12:43:52;;;;;;;11.20;5.90;;;;;;;;;;4982384;28;20046;-69
2022/10/20 12:46:26;;;;;;;12.23;5.20;;;;;;;;;;4983956;28;20053;-68
2022/10/20 12:48:58;;;;;;;6.93;5.63;;;;;;;;;;4982853;28;20494;-70
2022/10/20 12:51:52;;;;;;;8.77;5.30;;;;;;;;;;4982217;28;20057;-69
2022/10/20 12:54:17;;;;;;;6.97;4.47;;;;;;;;;;4983168;28;20042;-70
2022/10/20 12:56:43;;;;;;;9.48;4.55;;;;;;;;;;4984143;28;20231;-69
2022/10/20 12:59:27;;;;;;;7.45;4.20;;;;;;;;;;4982977;28;20053;-70
2022/10/20 13:02:08;;;;;;;11.52;4.72;;;;;;;;;;4982648;28;20046;-68
2022/10/20 13:04:53;;;;;;;7.70;5.00;;;;;;;;;;4983889;28;20043;-68
2022/10/20 13:07:44;;;;;;;8.88;4.70;;;;;;;;;;4982880;28;21183;-69
2022/10/20 13:10:36;;;;;;;13.20;4.60;;;;;;;;;;4983135;28;20078;-69
2022/10/20 13:13:01;;;;;;;10.00;5.50;;;;;;;;;;4978121;28;20054;-69
2022/10/20 13:15:28;;;;;;;8.48;4.82;;;;;;;;;;4980753;28;20042;-69
2022/10/20 13:17:57;;;;;;;8.45;4.80;;;;;;;;;;4984086;28;20551;-69
2022/10/20 13:20:49;;;;;;;8.60;4.50;;;;;;;;;;4965783;28;20056;-69
2022/10/20 13:23:17;;;;;;;7.95;4.80;;;;;;;;;;4944700;28;20776;-69
2022/10/20 13:25:47;;;;;;;6.97;4.57;;;;;;;;;;4983426;28;20073;-69
2022/10/20 13:28:12;;;;;;;8.13;4.72;;;;;;;;;;4983230;28;20054;-69
2022/10/20 13:30:56;;;;;;;8.73;4.70;;;;;;;;;;4983528;28;20050;-69
2022/10/20 13:33:31;;;;;;;12.13;5.13;;;;;;;;;;4965674;28;20383;-69
2022/10/20 13:35:57;;;;;;;6.47;4.60;;;;;;;;;;4982739;28;20108;-68
2022/10/20 13:38:30;;;;;;;8.75;5.28;;;;;;;;;;4983128;28;20133;-69
2022/10/20 13:41:03;;;;;;;8.05;4.97;;;;;;;;;;4983010;28;20117;-71
2022/10/20 13:43:47;;;;;;;9.48;5.15;;;;;;;;;;4983420;28;20046;-68
2022/10/20 13:46:39;;;;;;;7.20;5.15;;;;;;;;;;4982966;28;20058;-69
2022/10/20 13:49:07;;;;;;;9.70;4.45;;;;;;;;;;4981604;28;20410;-69
2022/10/20 13:51:43;;;;;;;10.18;5.80;;;;;;;;;;4965841;28;20529;-69
2022/10/20 13:54:22;;;;;;;11.52;4.55;;;;;;;;;;4980505;28;20528;-70
2022/10/20 13:56:49;;;;;;;10.15;4.65;;;;;;;;;;4981029;28;20154;-71
2022/10/20 13:59:16;;;;;;;9.45;5.22;;;;;;;;;;4981924;28;20053;-70
2022/10/20 14:01:46;;;;;;;8.98;5.20;;;;;;;;;;4981970;28;20100;-70
2022/10/20 14:04:28;;;;;;;7.55;5.10;;;;;;;;;;4982096;28;20046;-71
2022/10/20 14:06:54;;;;;;;7.38;5.38;;;;;;;;;;4965154;28;20513;-72
2022/10/20 14:09:24;;;;;;;6.05;4.80;;;;;;;;;;4982285;28;20042;-70
2022/10/20 14:12:04;;;;;;;12.60;4.72;;;;;;;;;;4984213;28;20543;-70
2022/10/20 14:14:30;;;;;;;9.45;4.82;;;;;;;;;;4980744;28;20108;-71
2022/10/20 14:16:57;;;;;;;7.30;4.93;;;;;;;;;;4981811;28;20133;-71
2022/10/20 14:19:26;;;;;;;10.73;5.07;;;;;;;;;;4981305;28;20190;-69
2022/10/20 14:21:57;;;;;;;9.27;4.82;;;;;;;;;;4980955;28;20442;-70
2022/10/20 14:24:25;;;;;;;12.15;4.70;;;;;;;;;;4981275;28;20860;-70
2022/10/20 14:26:52;;;;;;;7.65;4.95;;;;;;;;;;4980471;28;20495;-70
2022/10/20 14:29:20;;;;;;;6.90;4.85;;;;;;;;;;4979900;28;20060;-71
2022/10/20 14:31:46;;;;;;;8.77;5.15;;;;;;;;;;4981090;28;20503;-70
2022/10/20 14:34:31;;;;;;;12.07;4.78;;;;;;;;;;4981240;28;20141;-69
2022/10/20 14:36:57;;;;;;;7.13;4.88;;;;;;;;;;4980222;28;20237;-69
2022/10/20 14:39:34;;;;;;;10.68;4.90;;;;;;;;;;4982234;28;20392;-70
2022/10/20 14:42:01;;;;;;;19.67;6.00;;;;;;;;;;4981274;28;20057;-70
2022/10/20 14:44:27;;;;;;;9.15;5.07;;;;;;;;;;4981625;28;20049;-70
2022/10/20 14:46:56;;;;;;;13.45;4.82;;;;;;;;;;4980317;28;20050;-70
2022/10/20 14:49:25;;;;;;;9.07;5.22;;;;;;;;;;4981633;28;20076;-69
2022/10/20 14:51:58;;;;;;;9.48;4.93;;;;;;;;;;4981244;28;20506;-69